Stena Germanica — SKPZ — position and weather

sailwx.info

Track history (hours):
 
Tides and Currents Weather Stations Pressure Air Temp Water Temp Dewpoint Dewpoint Depression Visibility Wind Speed Wind Dir Waves Ship Positions

Stena Germanica

Last reported at 2016-Sep-26 20:33 UTC. Time now 2016-Sep-27 05:20 UTC.
Position N 55°02' E 018°22'.

Length 176 m; draft 6.6 m.

Type: Ship (hazmat cat A). MMSI: 265292000.

Date/timePositionNaut miles runAvg speedWind from/ knotsBaromVisibWave heightAir tempDewpointWater temp
2016-Sep-26 20:33N 55°02' E 018°22'1414.2
2016-Sep-26 19:34N 54°52' E 018°41'21 5.2
2016-Sep-26 15:33N 54°33' E 018°30'0 0.0
2016-Sep-26 13:33N 54°33' E 018°30'0 0.0
2016-Sep-26 11:33N 54°33' E 018°30'0 0.0
2016-Sep-26 08:33N 54°33' E 018°30'39 6.5
2016-Sep-26 02:33N 55°09' E 018°06'1515.4
2016-Sep-26 01:33N 55°17' E 017°43'21 1.4
2016-Sep-25 10:33N 55°05' E 018°13'1616.4
2016-Sep-25 09:33N 54°55' E 018°37'2311.6
2016-Sep-25 07:33N 54°32' E 018°42'1 0.3
2016-Sep-25 04:34N 54°33' E 018°42'33 1.7
2016-Sep-24 09:33N 55°02' E 018°18'33 5.5
2016-Sep-24 03:33N 54°36' E 018°54'1312.9
2016-Sep-24 02:33N 54°48' E 018°46'1515.1
2016-Sep-24 01:33N 54°59' E 018°27'1514.9
2016-Sep-24 00:33N 55°07' E 018°06'2 0.1
2016-Sep-22 23:10N 55°09' E 018°07'3814.4
2016-Sep-22 20:33N 54°45' E 018°58'34 1.5
2016-Sep-21 22:19N 55°06' E 018°11'4014.3
2016-Sep-21 19:34N 54°32' E 018°45'8 2.6
2016-Sep-21 16:33N 54°32' E 018°32'1 0.0
2016-Sep-20 17:32N 54°33' E 018°30'24 7.9
2016-Sep-20 14:33N 54°56' E 018°34'2019.5
2016-Sep-20 13:33N 55°07' E 018°05'10416.5
2016-Sep-20 07:14N 56°09' E 015°36'30 6.4
2016-Sep-20 02:30N 55°49' E 016°18'10615.2
2016-Sep-19 19:34N 54°47' E 018°48'1313.3
2016-Sep-19 18:33N 54°34' E 018°52'12 5.9
2016-Sep-19 16:28N 54°33' E 018°30'0 0.0
2016-Sep-19 14:31N 54°33' E 018°30'0 0.0
2016-Sep-19 13:31N 54°33' E 018°30'0 0.0
2016-Sep-19 12:31N 54°33' E 018°30'0 0.0
2016-Sep-19 11:31N 54°33' E 018°30'0 0.0
2016-Sep-19 09:31N 54°33' E 018°30'0 0.0
2016-Sep-19 07:31N 54°33' E 018°30'1 1.2
2016-Sep-19 06:33N 54°32' E 018°32'25 8.5
2016-Sep-19 03:33N 54°57' E 018°24'1615.9
2016-Sep-19 02:33N 55°07' E 018°01'7 0.5
2016-Sep-18 10:32N 55°04' E 018°13'1616.4
2016-Sep-18 09:33N 54°54' E 018°34'1 0.1
2016-Sep-18 02:33N 54°55' E 018°35'1615.7
2016-Sep-18 01:32N 55°06' E 018°14'38 2.8
2016-Sep-17 12:10N 55°26' E 017°18'3516.9
2016-Sep-17 10:05N 55°08' E 018°11'916.7
2016-Sep-17 09:33N 55°03' E 018°24'1716.8
2016-Sep-17 08:33N 54°53' E 018°47'1615.6
2016-Sep-17 07:34N 54°39' E 018°57'16 8.1
2016-Sep-17 05:31N 54°33' E 018°30'1 1.3
2016-Sep-17 04:33N 54°32' E 018°32'39 9.7
2016-Sep-17 00:33N 55°07' E 018°01'  
Track history (hours):
 
Tides and Currents Weather Stations Pressure Air Temp Water Temp Dewpoint Dewpoint Depression Visibility Wind Speed Wind Dir Waves Ship Positions

Stena Germanica

Last reported at 2016-Sep-26 20:33 UTC. Time now 2016-Sep-27 05:20 UTC.
Position N 55°02' E 018°22'.

Length 176 m; draft 6.6 m.

Type: Ship (hazmat cat A). MMSI: 265292000.

Date/timePositionNaut miles runAvg speedWind from/ knotsBaromVisibWave heightAir tempDewpointWater temp
2016-Sep-26 20:33N 55°02' E 018°22'1414.2
2016-Sep-26 19:34N 54°52' E 018°41'21 5.2
2016-Sep-26 15:33N 54°33' E 018°30'0 0.0
2016-Sep-26 13:33N 54°33' E 018°30'0 0.0
2016-Sep-26 11:33N 54°33' E 018°30'0 0.0
2016-Sep-26 08:33N 54°33' E 018°30'39 6.5
2016-Sep-26 02:33N 55°09' E 018°06'1515.4
2016-Sep-26 01:33N 55°17' E 017°43'21 1.4
2016-Sep-25 10:33N 55°05' E 018°13'1616.4
2016-Sep-25 09:33N 54°55' E 018°37'2311.6
2016-Sep-25 07:33N 54°32' E 018°42'1 0.3
2016-Sep-25 04:34N 54°33' E 018°42'33 1.7
2016-Sep-24 09:33N 55°02' E 018°18'33 5.5
2016-Sep-24 03:33N 54°36' E 018°54'1312.9
2016-Sep-24 02:33N 54°48' E 018°46'1515.1
2016-Sep-24 01:33N 54°59' E 018°27'1514.9
2016-Sep-24 00:33N 55°07' E 018°06'2 0.1
2016-Sep-22 23:10N 55°09' E 018°07'3814.4
2016-Sep-22 20:33N 54°45' E 018°58'34 1.5
2016-Sep-21 22:19N 55°06' E 018°11'4014.3
2016-Sep-21 19:34N 54°32' E 018°45'8 2.6
2016-Sep-21 16:33N 54°32' E 018°32'1 0.0
2016-Sep-20 17:32N 54°33' E 018°30'24 7.9
2016-Sep-20 14:33N 54°56' E 018°34'2019.5
2016-Sep-20 13:33N 55°07' E 018°05'10416.5
2016-Sep-20 07:14N 56°09' E 015°36'30 6.4
2016-Sep-20 02:30N 55°49' E 016°18'10615.2
2016-Sep-19 19:34N 54°47' E 018°48'1313.3
2016-Sep-19 18:33N 54°34' E 018°52'12 5.9
2016-Sep-19 16:28N 54°33' E 018°30'0 0.0
2016-Sep-19 14:31N 54°33' E 018°30'0 0.0
2016-Sep-19 13:31N 54°33' E 018°30'0 0.0
2016-Sep-19 12:31N 54°33' E 018°30'0 0.0
2016-Sep-19 11:31N 54°33' E 018°30'0 0.0
2016-Sep-19 09:31N 54°33' E 018°30'0 0.0
2016-Sep-19 07:31N 54°33' E 018°30'1 1.2
2016-Sep-19 06:33N 54°32' E 018°32'25 8.5
2016-Sep-19 03:33N 54°57' E 018°24'1615.9
2016-Sep-19 02:33N 55°07' E 018°01'7 0.5
2016-Sep-18 10:32N 55°04' E 018°13'1616.4
2016-Sep-18 09:33N 54°54' E 018°34'1 0.1
2016-Sep-18 02:33N 54°55' E 018°35'1615.7
2016-Sep-18 01:32N 55°06' E 018°14'38 2.8
2016-Sep-17 12:10N 55°26' E 017°18'3516.9
2016-Sep-17 10:05N 55°08' E 018°11'916.7
2016-Sep-17 09:33N 55°03' E 018°24'1716.8
2016-Sep-17 08:33N 54°53' E 018°47'1615.6
2016-Sep-17 07:34N 54°39' E 018°57'16 8.1
2016-Sep-17 05:31N 54°33' E 018°30'1 1.3
2016-Sep-17 04:33N 54°32' E 018°32'39 9.7
2016-Sep-17 00:33N 55°07' E 018°01'  

Dump ship's entire track history